Time;durP1;ratioP1;P1;durP2;ratioP2;P2;SDS_P1;SDS_P2;PMS_P1;PMS_P2;Temp;Humidity;BMP_temperature;BMP_pressure;BME280_temperature;BME280_humidity;BME280_pressure;Samples;Min_cycle;Max_cycle;Signal;HPM_P1;HPM_P2
2023/10/13 00:00:42;;;;;;;11.70;7.60;;;;;;;17.63;100.00;99447.62;104695;1257;61470;-63
2023/10/13 00:03:14;;;;;;;11.70;7.60;;;;;;;17.60;100.00;99444.77;104604;1254;60642;-63
2023/10/13 00:05:43;;;;;;;11.40;8.30;;;;;;;17.57;100.00;99440.59;104441;1251;73710;-63
2023/10/13 00:08:13;;;;;;;9.50;7.80;;;;;;;17.57;100.00;99441.48;104618;1254;68532;-63
2023/10/13 00:10:42;;;;;;;10.90;8.80;;;;;;;17.52;100.00;99434.39;104767;1251;72482;-65
2023/10/13 00:15:45;;;;;;;12.10;7.80;;;;;;;17.49;100.00;99428.59;104250;1256;59880;-64
2023/10/13 00:18:18;;;;;;;11.50;7.50;;;;;;;17.52;100.00;99433.88;104430;1255;72542;-64
2023/10/13 00:20:50;;;;;;;11.30;7.10;;;;;;;17.54;100.00;99434.11;107788;1254;68004;-66
2023/10/13 00:23:21;;;;;;;9.80;6.80;;;;;;;17.57;100.00;99428.94;108048;1253;72527;-65
2023/10/13 00:25:59;;;;;;;9.50;6.40;;;;;;;17.60;100.00;99422.30;104460;1261;61732;-64
2023/10/13 00:28:35;;;;;;;8.60;7.10;;;;;;;17.62;100.00;99420.89;104677;1254;59976;-64
2023/10/13 00:31:13;;;;;;;8.70;7.60;;;;;;;17.61;100.00;99418.86;104531;1251;72870;-64
2023/10/13 00:33:41;;;;;;;9.50;7.10;;;;;;;17.66;100.00;99413.54;104445;1251;69236;-63
2023/10/13 00:36:19;;;;;;;10.60;7.90;;;;;;;17.69;100.00;99410.14;104322;1254;72377;-63
2023/10/13 00:38:48;;;;;;;11.90;6.90;;;;;;;17.70;100.00;99409.34;104371;1254;60839;-65
2023/10/13 00:41:18;;;;;;;10.70;7.00;;;;;;;17.70;100.00;99415.67;104353;1256;59762;-64
2023/10/13 00:44:03;;;;;;;10.30;7.50;;;;;;;17.67;100.00;99421.61;104516;1267;71895;-65
2023/10/13 00:46:33;;;;;;;10.80;8.20;;;;;;;17.65;100.00;99422.61;104826;1257;69121;-65
2023/10/13 00:49:04;;;;;;;9.50;7.20;;;;;;;17.62;100.00;99426.23;104685;1257;71528;-67
2023/10/13 00:51:32;;;;;;;10.30;7.70;;;;;;;17.61;100.00;99437.27;104738;1252;61465;-63
2023/10/13 00:54:02;;;;;;;13.10;7.90;;;;;;;17.60;100.00;99438.80;104419;1251;59682;-63
2023/10/13 00:56:33;;;;;;;11.50;8.60;;;;;;;17.54;100.00;99440.64;104286;1256;72805;-64
2023/10/13 00:59:03;;;;;;;9.10;7.90;;;;;;;17.54;100.00;99441.02;104449;1270;69609;-63
2023/10/13 01:01:32;;;;;;;12.00;8.30;;;;;;;17.54;100.00;99439.42;104516;1254;71208;-65
2023/10/13 01:04:08;;;;;;;10.30;8.30;;;;;;;17.50;100.00;99450.11;104288;1255;61433;-64
2023/10/13 01:06:37;;;;;;;10.10;8.60;;;;;;;17.50;100.00;99451.02;104409;1251;59736;-64
2023/10/13 01:09:18;;;;;;;11.00;9.10;;;;;;;17.52;100.00;99446.13;104348;1251;74082;-64
2023/10/13 01:11:51;;;;;;;13.90;8.30;;;;;;;17.50;100.00;99446.23;104361;1258;69165;-64
2023/10/13 01:14:21;;;;;;;11.90;8.80;;;;;;;17.50;100.00;99441.60;104304;1264;73480;-64
2023/10/13 01:16:52;;;;;;;13.30;8.00;;;;;;;17.51;100.00;99442.27;104384;1254;61472;-64
2023/10/13 01:19:29;;;;;;;9.20;7.70;;;;;;;17.50;100.00;99444.98;104398;1254;60637;-65
2023/10/13 01:22:02;;;;;;;11.00;8.10;;;;;;;17.45;100.00;99442.02;104436;1256;72919;-64
2023/10/13 01:24:36;;;;;;;8.90;7.70;;;;;;;17.48;100.00;99439.13;104450;1254;68176;-62
2023/10/13 01:27:17;;;;;;;9.90;7.30;;;;;;;17.49;100.00;99439.44;104526;1264;73394;-61
2023/10/13 01:29:50;;;;;;;9.60;7.70;;;;;;;17.48;100.00;99446.26;104528;1257;61398;-64
2023/10/13 01:32:19;;;;;;;12.70;8.00;;;;;;;17.45;100.00;99452.45;104393;1256;60167;-63
2023/10/13 01:34:49;;;;;;;12.20;8.80;;;;;;;17.43;100.00;99450.33;104419;1266;73660;-63
2023/10/13 01:37:19;;;;;;;12.80;8.50;;;;;;;17.43;100.00;99452.95;104177;1269;69814;-63
2023/10/13 01:39:49;;;;;;;8.80;7.30;;;;;;;17.44;100.00;99456.82;104425;1263;72483;-63
2023/10/13 01:42:21;;;;;;;13.60;7.40;;;;;;;17.42;100.00;99458.24;104666;1251;61723;-63
2023/10/13 01:44:50;;;;;;;9.20;8.30;;;;;;;17.40;100.00;99468.45;104475;1256;59772;-63
2023/10/13 01:47:18;;;;;;;10.90;8.40;;;;;;;17.42;100.00;99473.44;104316;1264;72712;-62
2023/10/13 01:49:50;;;;;;;10.20;8.80;;;;;;;17.41;100.00;99471.92;104389;1256;68170;-64
2023/10/13 01:52:18;;;;;;;12.60;8.90;;;;;;;17.42;100.00;99475.06;104373;1256;72955;-62
2023/10/13 01:54:48;;;;;;;10.90;8.20;;;;;;;17.41;100.00;99483.05;104397;1256;61634;-62
2023/10/13 01:57:23;;;;;;;11.70;8.20;;;;;;;17.39;100.00;99486.04;104356;1257;60656;-62
2023/10/13 01:59:52;;;;;;;8.90;7.70;;;;;;;17.37;100.00;99487.64;104477;1251;72745;-62
2023/10/13 02:02:28;;;;;;;10.30;8.60;;;;;;;17.35;100.00;99487.57;104331;1257;69193;-62
2023/10/13 02:05:01;;;;;;;9.70;8.10;;;;;;;17.35;100.00;99494.69;104292;1265;72450;-61
2023/10/13 02:07:30;;;;;;;10.60;8.00;;;;;;;17.30;100.00;99503.52;104582;1256;61367;-62
2023/10/13 02:09:58;;;;;;;12.60;8.20;;;;;;;17.30;100.00;99505.98;104429;1253;59788;-61
2023/10/13 02:12:36;;;;;;;8.50;7.70;;;;;;;17.33;100.00;99507.94;104434;1257;72897;-61
2023/10/13 02:15:05;;;;;;;11.60;8.20;;;;;;;17.29;100.00;99508.35;104525;1257;69075;-62
2023/10/13 02:17:44;;;;;;;10.80;8.40;;;;;;;17.32;100.00;99516.66;104405;1270;72527;-62
2023/10/13 02:20:14;;;;;;;11.90;8.70;;;;;;;17.34;100.00;99519.02;104466;1253;61558;-61
2023/10/13 02:22:49;;;;;;;12.10;7.60;;;;;;;17.37;100.00;99520.09;106680;1251;60101;-62
2023/10/13 02:25:34;;;;;;;14.10;7.90;;;;;;;17.37;100.00;99519.17;108249;1251;73703;-62
2023/10/13 02:28:07;;;;;;;11.30;9.00;;;;;;;17.36;100.00;99525.93;104379;1260;69064;-62
2023/10/13 06:30:17;;;;;;;7.70;6.30;;;;;;;18.69;100.00;99733.23;104538;1257;59711;-60
2023/10/13 06:32:46;;;;;;;13.40;6.40;;;;;;;18.72;100.00;99734.86;104462;1260;72780;-64
2023/10/13 06:35:23;;;;;;;8.30;6.30;;;;;;;18.73;100.00;99737.75;104126;1272;69575;-60
2023/10/13 06:37:52;;;;;;;8.90;6.50;;;;;;;18.78;100.00;99740.21;104659;1256;72316;-60
2023/10/13 06:40:26;;;;;;;7.10;6.20;;;;;;;18.83;100.00;99741.09;104159;1262;61398;-60
2023/10/13 06:43:12;;;;;;;9.30;6.80;;;;;;;18.90;100.00;99743.66;104326;1258;60645;-60
2023/10/13 06:45:42;;;;;;;6.30;5.70;;;;;;;18.95;100.00;99745.34;104648;1260;72947;-59
2023/10/13 06:48:12;;;;;;;7.90;5.70;;;;;;;18.98;100.00;99746.16;104336;1258;69511;-59
2023/10/13 06:50:41;;;;;;;9.00;6.20;;;;;;;19.00;100.00;99752.95;104263;1261;72368;-59
2023/10/13 06:53:12;;;;;;;14.40;5.80;;;;;;;19.03;100.00;99756.64;104345;1272;62896;-59
2023/10/13 06:55:40;;;;;;;7.20;5.70;;;;;;;19.04;100.00;99761.39;104247;1257;59680;-60
2023/10/13 06:58:13;;;;;;;7.70;6.00;;;;;;;19.03;100.00;99765.54;104312;1256;72833;-60
2023/10/13 07:00:52;;;;;;;8.30;5.90;;;;;;;19.03;100.00;99767.70;104540;1256;69609;-59
2023/10/13 07:03:22;;;;;;;7.70;5.10;;;;;;;19.03;100.00;99771.73;104129;1260;72380;-60
2023/10/13 07:05:51;;;;;;;9.10;5.50;;;;;;;19.04;100.00;99780.08;104207;1258;62347;-59
2023/10/13 07:08:23;;;;;;;8.00;5.10;;;;;;;19.05;100.00;99786.48;104351;1258;59747;-61
2023/10/13 07:13:47;;;;;;;7.50;5.50;;;;;;;19.05;100.00;99777.68;104215;1259;70011;-63
2023/10/13 07:16:15;;;;;;;8.30;5.40;;;;;;;19.05;100.00;99776.36;104522;1257;72550;-63
2023/10/13 07:18:55;;;;;;;7.30;5.00;;;;;;;19.11;100.00;99778.63;104338;1261;62067;-63
2023/10/13 07:21:31;;;;;;;;;;;;;;;19.16;100.00;99782.48;104156;1268;59829;-66
2023/10/13 07:24:11;;;;;;;7.00;4.50;;;;;;;19.23;100.00;99785.17;104142;1260;73126;-63
2023/10/13 07:26:57;;;;;;;8.20;6.10;;;;;;;19.24;100.00;99786.30;104225;1256;69117;-63
2023/10/13 07:29:25;;;;;;;7.90;5.30;;;;;;;19.24;100.00;99788.45;104221;1257;72501;-63
2023/10/13 07:31:52;;;;;;;6.30;5.40;;;;;;;19.23;100.00;99791.05;104175;1257;61429;-64
2023/10/13 07:34:26;;;;;;;;;;;;;;;19.21;100.00;99787.27;104371;1256;59747;-63
2023/10/13 07:37:00;;;;;;;10.00;5.40;;;;;;;19.20;100.00;99784.17;104154;1258;73045;-63
2023/10/13 07:39:28;;;;;;;9.90;5.70;;;;;;;19.20;100.00;99783.07;104109;1264;69811;-63
2023/10/13 07:42:03;;;;;;;6.60;5.80;;;;;;;19.23;100.00;99786.02;104202;1278;72326;-63
2023/10/13 07:44:33;;;;;;;6.40;5.70;;;;;;;19.24;100.00;99790.73;104204;1271;62413;-63
2023/10/13 07:47:04;;;;;;;7.10;5.20;;;;;;;19.27;100.00;99790.36;104369;1256;59756;-62
2023/10/13 07:49:37;;;;;;;5.80;5.10;;;;;;;19.29;100.00;99788.27;104468;1256;72858;-63
2023/10/13 07:55:11;;;;;;;12.80;5.40;;;;;;;19.40;100.00;99790.11;104403;1260;72420;-60
2023/10/13 07:57:55;;;;;;;8.10;6.10;;;;;;;19.40;100.00;99787.21;104347;1272;62640;-64
2023/10/13 08:00:46;;;;;;;7.10;5.10;;;;;;;19.44;100.00;99788.33;104640;1258;59737;-64
2023/10/13 08:06:04;;;;;;;11.70;6.00;;;;;;;19.58;100.00;99796.29;104222;1260;70254;-63
2023/10/13 08:08:39;;;;;;;6.10;5.00;;;;;;;19.62;100.00;99804.72;104262;1262;72323;-65
2023/10/13 08:11:24;;;;;;;6.10;4.80;;;;;;;19.62;100.00;99807.05;104253;1266;61421;-64
2023/10/13 08:14:10;;;;;;;6.40;5.50;;;;;;;19.63;100.00;99810.12;104290;1259;59736;-64
2023/10/13 08:16:59;;;;;;;8.20;5.60;;;;;;;19.67;100.00;99810.91;104626;1258;72835;-64
2023/10/13 09:29:56;;;;;;;;;;;;;;;20.15;100.00;99849.37;104159;1257;59798;-63
2023/10/13 09:32:24;;;;;;;4.80;3.90;;;;;;;20.23;100.00;99849.80;104206;1261;73279;-60
2023/10/13 09:34:51;;;;;;;5.10;3.80;;;;;;;20.32;100.00;99853.82;104095;1270;69371;-64
2023/10/13 09:37:22;;;;;;;6.00;3.50;;;;;;;20.48;100.00;99847.23;103891;1276;71084;-63
2023/10/13 09:39:54;;;;;;;6.20;3.80;;;;;;;20.55;100.00;99843.79;104235;1258;61453;-64
2023/10/13 09:42:26;;;;;;;5.50;2.90;;;;;;;20.65;100.00;99843.94;104143;1260;60721;-64
2023/10/13 09:45:04;;;;;;;4.00;3.40;;;;;;;20.80;100.00;99840.96;104188;1255;72109;-63
2023/10/13 09:47:36;;;;;;;5.80;3.60;;;;;;;20.93;100.00;99839.84;103969;1261;70049;-64
2023/10/13 09:50:14;;;;;;;6.40;3.50;;;;;;;21.02;100.00;99844.99;103967;1276;73243;-61
2023/10/13 09:52:43;;;;;;;3.80;3.40;;;;;;;21.03;100.00;99850.06;104119;1262;61435;-62
2023/10/13 09:55:20;;;;;;;6.60;3.80;;;;;;;21.08;100.00;99844.00;104113;1261;59758;-62
2023/10/13 09:58:28;;;;;;;5.70;3.50;;;;;;;21.26;100.00;99837.43;104049;1261;73145;-63
2023/10/13 10:01:20;;;;;;;5.10;3.20;;;;;;;21.46;100.00;99837.05;104279;1272;69597;-62
2023/10/13 10:04:08;;;;;;;4.10;3.20;;;;;;;21.52;100.00;99839.19;104225;1268;71417;-62
2023/10/13 10:06:39;;;;;;;4.10;3.00;;;;;;;21.49;100.00;99838.06;104241;1259;62380;-62
2023/10/13 10:09:11;;;;;;;3.90;2.90;;;;;;;21.43;100.00;99836.23;104237;1260;60065;-62
2023/10/13 10:12:11;;;;;;;3.60;3.30;;;;;;;21.42;100.00;99831.18;104314;1256;72800;-62
2023/10/13 10:15:13;;;;;;;8.10;3.20;;;;;;;21.49;100.00;99827.02;104156;1267;69271;-61
2023/10/13 10:17:41;;;;;;;3.50;3.00;;;;;;;21.52;100.00;99824.06;104075;1268;71212;-62
2023/10/13 10:20:22;;;;;;;5.90;2.80;;;;;;;21.51;99.80;99822.17;104209;1254;62852;-62
2023/10/13 10:23:00;;;;;;;8.70;3.60;;;;;;;21.53;99.40;99823.56;104706;1256;59723;-62
2023/10/13 10:25:34;;;;;;;4.60;2.90;;;;;;;21.56;98.31;99822.80;104098;1257;73332;-63
2023/10/13 10:28:06;;;;;;;6.20;2.80;;;;;;;21.63;97.05;99826.55;107844;1256;68486;-63
2023/10/13 10:30:38;;;;;;;6.30;2.70;;;;;;;21.69;94.48;99830.25;107021;1255;72499;-63
2023/10/13 10:33:11;;;;;;;5.50;2.80;;;;;;;21.66;92.98;99832.86;104769;1258;61481;-63
2023/10/13 10:35:42;;;;;;;7.00;2.90;;;;;;;21.69;93.42;99832.95;104768;1253;60114;-62
2023/10/13 10:38:11;;;;;;;4.60;2.50;;;;;;;21.75;93.20;99835.04;104479;1253;73010;-62
2023/10/13 10:40:56;;;;;;;5.00;2.60;;;;;;;21.85;90.48;99833.77;104959;1252;69609;-63
2023/10/13 10:43:50;;;;;;;4.50;3.20;;;;;;;21.94;89.37;99828.65;104634;1253;72375;-62
2023/10/13 10:46:37;;;;;;;5.70;3.20;;;;;;;22.03;89.09;99830.55;104349;1253;62540;-62
2023/10/13 10:49:08;;;;;;;3.50;2.60;;;;;;;22.03;85.41;99831.59;105070;1253;60483;-62
2023/10/13 10:51:44;;;;;;;4.80;3.00;;;;;;;22.05;85.55;99828.17;104551;1251;73583;-64
2023/10/13 10:54:21;;;;;;;3.90;2.50;;;;;;;22.10;84.35;99825.31;104730;1258;69525;-63
2023/10/13 10:56:52;;;;;;;6.80;2.80;;;;;;;22.18;83.45;99821.39;104788;1260;72462;-62
2023/10/13 10:59:24;;;;;;;5.90;3.10;;;;;;;22.27;84.21;99817.03;104519;1254;64006;-61
2023/10/13 11:01:52;;;;;;;5.50;3.20;;;;;;;22.39;82.49;99811.70;104451;1256;61109;-64
2023/10/13 11:06:56;;;;;;;3.50;2.50;;;;;;;22.51;80.93;99810.46;104774;1253;69665;-62
2023/10/13 11:12:06;;;;;;;2.10;1.60;;;;;;;22.38;77.37;99816.27;104785;1255;61458;-63
2023/10/13 11:14:34;;;;;;;3.70;2.20;;;;;;;22.29;76.12;99818.13;104485;1253;60482;-64
2023/10/13 11:17:13;;;;;;;4.40;2.60;;;;;;;22.21;77.91;99815.73;104768;1253;72989;-62
2023/10/13 11:19:42;;;;;;;4.00;2.60;;;;;;;22.07;72.41;99810.34;104796;1258;70641;-62
2023/10/13 11:22:32;;;;;;;3.20;2.30;;;;;;;22.05;76.13;99808.02;104585;1253;72351;-62
2023/10/13 11:25:11;;;;;;;3.60;2.10;;;;;;;22.06;76.60;99812.86;104560;1255;60593;-63
2023/10/13 11:30:20;;;;;;;4.20;2.30;;;;;;;22.06;76.39;99818.84;106804;1253;72793;-60
2023/10/13 11:36:13;;;;;;;6.30;2.80;;;;;;;21.64;80.85;99834.39;101568;1293;601630;-61
2023/10/13 11:38:49;;;;;;;4.30;2.60;;;;;;;22.17;75.28;99825.57;104493;1263;60067;-62
2023/10/13 11:41:21;;;;;;;2.80;2.50;;;;;;;22.26;72.31;99829.05;104222;1261;59709;-61
2023/10/13 11:43:52;;;;;;;3.30;2.50;;;;;;;22.29;69.15;99828.65;104056;1263;72282;-62
2023/10/13 11:51:45;;;;;;;4.80;2.00;;;;;;;22.39;67.98;99823.66;104273;1260;60358;-61
2023/10/13 11:54:22;;;;;;;4.50;2.50;;;;;;;22.45;65.74;99825.48;104402;1255;60465;-62
2023/10/13 11:56:51;;;;;;;2.70;2.10;;;;;;;22.46;65.55;99819.48;104587;1257;72000;-62
2023/10/13 11:59:20;;;;;;;3.70;2.30;;;;;;;22.50;65.76;99816.41;104314;1272;69133;-63
2023/10/13 12:04:48;;;;;;;5.60;2.40;;;;;;;22.59;63.91;99815.23;107854;1257;58928;-61
2023/10/13 12:07:19;;;;;;;5.60;2.50;;;;;;;22.60;64.45;99816.95;104613;1257;59759;-61
2023/10/13 12:10:03;;;;;;;3.50;2.30;;;;;;;22.59;62.68;99815.45;104926;1257;72768;-62
2023/10/13 12:12:31;;;;;;;2.80;2.60;;;;;;;22.66;62.82;99815.64;104479;1267;69316;-62
2023/10/13 12:15:09;;;;;;;3.70;2.40;;;;;;;22.71;61.31;99814.15;104800;1260;72846;-61
2023/10/13 12:17:39;;;;;;;7.50;2.40;;;;;;;22.77;60.45;99807.67;104276;1260;60200;-61
2023/10/13 12:20:35;;;;;;;2.60;2.10;;;;;;;22.90;61.89;99808.19;104819;1256;59804;-63
2023/10/13 12:23:15;;;;;;;2.50;2.30;;;;;;;23.02;60.46;99803.48;104602;1256;73695;-63
2023/10/13 12:25:59;;;;;;;8.70;2.70;;;;;;;23.15;59.01;99794.98;104376;1273;69783;-63
2023/10/13 12:28:28;;;;;;;3.70;2.80;;;;;;;23.27;57.53;99795.59;105047;1256;72477;-61
2023/10/13 12:31:01;;;;;;;2.70;2.10;;;;;;;23.38;58.82;99800.13;107817;1257;59949;-62
2023/10/13 12:33:40;;;;;;;2.50;2.20;;;;;;;23.47;59.58;99797.00;106282;1256;61909;-62
2023/10/13 12:36:26;;;;;;;8.40;2.10;;;;;;;23.53;59.81;99799.44;107370;1256;72802;-62
2023/10/13 23:52:20;;;;;;;9.40;8.10;;;;;;;12.68;100.00;99893.61;101632;1293;602413;-60
2023/10/13 23:54:54;;;;;;;10.70;8.70;;;;;;;13.10;100.00;99886.54;103882;1265;60423;-62
2023/10/13 23:57:27;;;;;;;10.60;7.90;;;;;;;13.12;100.00;99883.59;103762;1266;59430;-60
2023/10/13 23:59:56;;;;;;;11.40;8.30;;;;;;;13.10;100.00;99885.63;103671;1264;72433;-62
